Strona główna
METAR-TAF:

METAR-TAF

Lotnisko :

Jackson County Airport (Reynolds Field)

Jackson, Michigan, Stany Zjednoczone

Szerokość geograficzna: 42-15-35N, Długość geograficzna: 084-27-34W, wysokość: 305 m

Aktualna obserwacja pogody

Raport powstał 35 minut temu, godzina 12:56 UTC
Wiatr 4 kt od północny wschód
Temperatura 15°C
Wilgotność 77%
Ciśnienie 1027 hPa
Widzialność: 16.1 km
bezchmurnie

METAR: KJXN 241256Z 05004KT 10SM CLR 15/11 A3032 RMK AO2 SLP267 T01500111

czas: 09:31 (13:31 UTC)

Prognoza

Raport powstał 1 godzina i 51 minut temu, godzina 11:40 UTC
Prognoza ważna od 24 godzina 12 UTC do 25 godzina 12 UTC
Wiatr kt od północ
Widzialność: 10 km
bezchmurnie
Od 24 godzina 1600 UTC
Wiatr 8 kt od wschodnio-północny wschód
Widzialność: 10 km
Rozproszone chmury na wysokości 5000 ft
Od 25 godzina 0100 UTC
Wiatr 3 kt z kierunków zmiennych
Widzialność: 10 km
bezchmurnie

TAF: KJXN 241140Z 2412/2512 00000KT P6SM SKC FM241600 07008KT P6SM SCT050 FM250100 VRB03KT P6SM SKC

Obserwacja i prognoza pogody dla ponad 4000 lotnisk (raport METAR i TAF).

Dostępne stacje oznaczono żółtymi i czerwonymi punktami na mapie.

Najedź kursorem aby zobaczyć nazwę stacji.

Kliknij aby zobaczyć obserwacje i prognozy pogody.

Aby zmienić mapę: kliknij na zielony przycisk z czarnym krzyżykiem, aby powiększyć; na zielony przycisk z myślnikiem, aby pomniejszyć; na zielone strzałki, aby przejść do map sąsiednich.


METAR-TAF: